Portada
METAR-TAF:

METAR-TAF

Aeroports :

Comiso, Itàlia

latitud: 36-59-30N, longitud: 14-36-25E, altitud: 190 m

Observació

L'informe es va fer fa 50 minuts, a les 17:50 UTC
Vent 6 kt del Oest
Temperatura 21°C
Humitat 73%
Pressió 1015 hPa
Visibilitat 10 km o més
sense núvols per sota de 1500 mi sense presència de cumulonimbus.

METAR: LICB 251750Z 28006KT CAVOK 21/16 Q1015

Hora: 20:40 (18:40 UTC)

Pronòstic

L'informe es va fer fa 31 hores i 40 minuts, a les 11:00 UTC
Pronòstic vàlid del 24 a les 12 UTC al 24 a les 21 UTC
Vent 10 kt del Oest/Sud-Oest
Visibilitat 10 km o més
Escasses núvols a una alçada de 3000 ft
Evolucionant progressivament
l' 24 a les 16 UTC al 24 a les 18 UTC
Vent 5 kt amb direcció variable

TAF: LICB 241100Z 2412/2421 24010KT 9999 FEW030 BECMG 2416/2418 VRB05KT

Observacions i pronòstics meteorològics de més de 4000 aeroports (METAR i TAF).

Les estacions disponibles són els punts grocs i vermells al mapa.

Posi el ratolí al punt desitjat per veure el nom de l'estació.

Feu clic per veure les observacions i els pronòstics meteorològics.

Per canviar el mapa: feu clic els botons verds amb una creu de color negre per apropar; al botó verd amb un guió per allunyar la imatge; o en les fletxes verdes per a mapes adjacents.


METAR-TAF: